createdAt,value
2023-02-11T00:01:09.285Z,81.19
2023-02-11T00:03:36.253Z,80.48
2023-02-11T00:06:05.755Z,80.45
2023-02-11T00:08:32.501Z,80.53
2023-02-11T00:10:59.210Z,80.44
2023-02-11T00:13:26.383Z,80.52
2023-02-11T00:15:54.429Z,80.28
2023-02-11T00:18:21.202Z,80.10
2023-02-11T00:20:48.040Z,80.35
2023-02-11T00:23:14.741Z,80.70
2023-02-11T00:25:45.301Z,80.71
2023-02-11T00:28:12.261Z,80.93
2023-02-11T00:30:40.927Z,80.75
2023-02-11T00:33:08.206Z,80.74
2023-02-11T00:35:37.633Z,80.33
2023-02-11T00:38:04.513Z,80.70
2023-02-11T00:40:31.516Z,80.86
2023-02-11T00:42:58.307Z,80.95
2023-02-11T00:45:25.035Z,80.86
2023-02-11T00:47:51.773Z,80.49
2023-02-11T00:50:18.466Z,80.57
2023-02-11T00:52:45.344Z,80.56
2023-02-11T00:55:12.062Z,81.22
2023-02-11T00:57:38.944Z,81.98
2023-02-11T01:00:06.801Z,81.53
2023-02-11T01:02:33.578Z,81.56
2023-02-11T01:05:00.906Z,82.26
2023-02-11T01:07:28.596Z,82.36
2023-02-11T01:09:55.498Z,82.50
2023-02-11T01:12:22.769Z,83.43
2023-02-11T01:14:49.608Z,82.71
2023-02-11T01:17:18.462Z,82.58
2023-02-11T01:19:45.169Z,83.05
2023-02-11T01:22:11.934Z,83.10
2023-02-11T01:24:38.693Z,83.27
2023-02-11T01:27:07.441Z,83.26
2023-02-11T01:29:34.326Z,83.55
2023-02-11T01:32:01.268Z,83.52
2023-02-11T01:34:28.267Z,83.05
2023-02-11T01:37:00.923Z,83.25
2023-02-11T01:39:29.093Z,82.90
2023-02-11T01:41:55.827Z,83.58
2023-02-11T01:44:26.209Z,83.27
2023-02-11T01:46:53.711Z,83.30
2023-02-11T01:49:28.015Z,83.31
2023-02-11T01:52:01.629Z,83.78
2023-02-11T01:54:49.766Z,83.96
2023-02-11T01:57:25.289Z,83.71
2023-02-11T02:00:12.209Z,83.96
2023-02-11T02:02:56.567Z,84.19
2023-02-11T02:06:04.283Z,85.08
2023-02-11T02:08:55.076Z,84.55
2023-02-11T02:11:21.766Z,83.74
2023-02-11T02:13:49.220Z,84.08
2023-02-11T02:16:18.756Z,84.29
2023-02-11T02:18:56.638Z,84.55
2023-02-11T02:21:52.634Z,84.38
2023-02-11T02:25:00.974Z,84.51
2023-02-11T02:27:38.283Z,84.48
2023-02-11T02:30:17.156Z,83.92
2023-02-11T02:32:49.100Z,84.15
2023-02-11T02:35:25.718Z,84.22
2023-02-11T02:38:08.761Z,84.37
2023-02-11T02:40:45.802Z,84.14
2023-02-11T02:43:13.988Z,83.85
2023-02-11T02:45:40.831Z,84.10
2023-02-11T02:48:07.576Z,84.83
2023-02-11T02:50:36.611Z,84.87
2023-02-11T02:53:12.053Z,84.73
2023-02-11T02:55:38.781Z,84.24
2023-02-11T02:58:15.810Z,83.85
2023-02-11T03:00:55.892Z,83.40
2023-02-11T03:03:49.339Z,83.90
2023-02-11T03:06:46.916Z,83.91
2023-02-11T03:09:22.344Z,83.85
2023-02-11T03:11:49.182Z,84.64
2023-02-11T03:14:18.625Z,84.54
2023-02-11T03:16:46.583Z,84.34
2023-02-11T03:19:17.972Z,85.18
2023-02-11T03:21:45.236Z,85.01
2023-02-11T03:24:20.445Z,85.01
2023-02-11T03:26:50.686Z,85.22
2023-02-11T03:29:39.436Z,85.07
2023-02-11T03:32:15.963Z,83.96
2023-02-11T03:35:15.785Z,84.89
2023-02-11T03:37:51.349Z,84.38
2023-02-11T03:40:29.922Z,84.43
2023-02-11T03:43:03.545Z,84.72
2023-02-11T03:45:30.656Z,84.28
2023-02-11T03:48:03.358Z,85.11
2023-02-11T03:50:32.443Z,84.97
2023-02-11T03:53:01.329Z,85.06
2023-02-11T03:55:28.969Z,85.04
2023-02-11T03:57:56.183Z,85.26
2023-02-11T04:00:33.834Z,85.55
2023-02-11T04:03:00.702Z,85.34
2023-02-11T04:05:27.387Z,85.68
2023-02-11T04:07:54.064Z,85.36
2023-02-11T04:10:20.866Z,85.30
2023-02-11T04:12:47.716Z,85.24
2023-02-11T04:15:14.689Z,85.58
2023-02-11T04:17:41.558Z,84.95
2023-02-11T04:20:09.219Z,84.92
2023-02-11T04:22:36.280Z,85.10
2023-02-11T04:25:04.295Z,85.14
2023-02-11T04:27:31.038Z,85.97
2023-02-11T04:29:57.777Z,85.77
2023-02-11T04:32:24.492Z,85.98
2023-02-11T04:34:51.869Z,85.54
2023-02-11T04:37:18.525Z,85.75
2023-02-11T04:39:45.247Z,85.28
2023-02-11T04:42:12.200Z,85.04
2023-02-11T04:44:38.982Z,84.89
2023-02-11T04:47:05.633Z,85.11
2023-02-11T04:49:32.308Z,85.70
2023-02-11T04:51:59.004Z,85.51
2023-02-11T04:54:25.706Z,85.76
2023-02-11T04:56:52.524Z,85.45
2023-02-11T04:59:19.386Z,85.64
2023-02-11T05:01:46.164Z,85.00
2023-02-11T05:04:13.025Z,84.80
2023-02-11T05:06:39.894Z,84.75
2023-02-11T05:09:06.619Z,84.90
2023-02-11T05:11:33.477Z,84.58
2023-02-11T05:14:00.386Z,84.53
2023-02-11T05:16:28.156Z,84.42
2023-02-11T05:18:55.774Z,84.42
2023-02-11T05:21:22.853Z,84.39
2023-02-11T05:23:49.554Z,84.54
2023-02-11T05:26:16.659Z,84.55
2023-02-11T05:28:44.328Z,84.86
2023-02-11T05:31:11.888Z,84.74
2023-02-11T05:33:38.644Z,85.12
2023-02-11T05:36:11.187Z,85.90
2023-02-11T05:38:38.485Z,85.15
2023-02-11T05:41:06.059Z,84.17
2023-02-11T05:43:34.756Z,84.22
2023-02-11T05:46:01.640Z,84.09
2023-02-11T05:48:28.379Z,84.30
2023-02-11T05:50:55.128Z,84.39
2023-02-11T05:53:21.942Z,84.45
2023-02-11T05:55:48.959Z,84.26
2023-02-11T05:58:15.898Z,84.78
2023-02-11T06:00:42.675Z,84.71
2023-02-11T06:03:09.431Z,84.65
2023-02-11T06:05:36.136Z,84.93
2023-02-11T06:08:02.860Z,84.91
2023-02-11T06:10:29.617Z,85.20
2023-02-11T06:12:56.313Z,84.72
2023-02-11T06:15:23.064Z,85.54
2023-02-11T06:17:49.741Z,85.59
2023-02-11T06:20:16.613Z,85.81
2023-02-11T06:22:43.260Z,86.04
2023-02-11T06:25:11.159Z,85.99
2023-02-11T06:27:38.338Z,85.88
2023-02-11T06:30:07.043Z,85.88
2023-02-11T06:32:49.600Z,85.73
2023-02-11T06:35:16.440Z,85.75
2023-02-11T06:37:43.433Z,85.45
2023-02-11T06:40:11.463Z,85.80
2023-02-11T06:42:39.218Z,85.38
2023-02-11T06:45:08.975Z,84.87
2023-02-11T06:47:35.675Z,85.59
2023-02-11T06:50:02.367Z,86.19
2023-02-11T06:52:29.122Z,86.37
2023-02-11T06:54:55.806Z,85.97
2023-02-11T06:57:22.794Z,85.61
2023-02-11T06:59:49.538Z,85.42
2023-02-11T07:02:18.469Z,85.12
2023-02-11T07:04:46.393Z,85.79
2023-02-11T07:07:13.152Z,86.15
2023-02-11T07:09:39.844Z,86.34
2023-02-11T07:12:06.719Z,85.66
2023-02-11T07:14:33.456Z,85.70
2023-02-11T07:17:00.239Z,85.88
2023-02-11T07:19:26.995Z,85.83
2023-02-11T07:21:54.209Z,85.95
2023-02-11T07:24:20.955Z,86.34
2023-02-11T07:26:47.635Z,86.48
2023-02-11T07:29:14.388Z,85.98
2023-02-11T07:31:41.118Z,86.02
2023-02-11T07:34:07.869Z,86.14
2023-02-11T07:36:34.613Z,85.96
2023-02-11T07:39:03.990Z,86.43
2023-02-11T07:41:30.849Z,86.37
2023-02-11T07:43:57.611Z,86.40
2023-02-11T07:46:26.447Z,85.92
2023-02-11T07:48:53.550Z,85.89
2023-02-11T07:51:25.661Z,86.07
2023-02-11T07:53:53.327Z,85.69
2023-02-11T07:56:20.723Z,85.50
2023-02-11T07:58:47.853Z,85.82
2023-02-11T08:01:22.685Z,85.72
2023-02-11T08:03:49.600Z,85.91
2023-02-11T08:06:18.814Z,85.26
2023-02-11T08:08:45.664Z,85.50
2023-02-11T08:11:15.235Z,85.62
2023-02-11T08:13:42.643Z,85.68
2023-02-11T08:16:10.555Z,85.45
2023-02-11T08:18:37.251Z,85.25
2023-02-11T08:21:05.926Z,85.22
2023-02-11T08:23:32.797Z,85.25
2023-02-11T08:26:03.788Z,85.20
2023-02-11T08:28:30.616Z,85.17
2023-02-11T08:30:57.410Z,85.12
2023-02-11T08:33:24.166Z,84.84
2023-02-11T08:35:50.893Z,84.78
2023-02-11T08:38:17.491Z,84.99
2023-02-11T08:40:44.187Z,85.01
2023-02-11T08:43:10.829Z,84.95
2023-02-11T08:45:37.544Z,84.59
2023-02-11T08:48:04.425Z,84.54
2023-02-11T08:50:32.239Z,84.62
2023-02-11T08:52:58.893Z,84.07
2023-02-11T08:55:25.802Z,84.03
2023-02-11T08:57:52.423Z,84.06
2023-02-11T09:00:19.461Z,83.79
2023-02-11T09:02:46.244Z,83.75
2023-02-11T09:05:12.910Z,83.64
2023-02-11T09:07:39.608Z,83.59
2023-02-11T09:10:06.629Z,83.57
2023-02-11T09:12:33.419Z,83.83
2023-02-11T09:15:00.118Z,84.41
2023-02-11T09:17:26.817Z,84.13
2023-02-11T09:19:53.483Z,84.49
2023-02-11T09:22:20.121Z,84.12
2023-02-11T09:24:46.748Z,84.60
2023-02-11T09:27:13.434Z,84.63
2023-02-11T09:29:40.112Z,84.64
2023-02-11T09:32:09.755Z,84.39
2023-02-11T09:34:36.802Z,84.10
2023-02-11T09:37:03.529Z,83.90
2023-02-11T09:39:30.258Z,83.78
2023-02-11T09:42:30.346Z,83.64
2023-02-11T09:44:57.833Z,83.73
2023-02-11T09:47:32.309Z,83.38
2023-02-11T09:50:02.702Z,83.19
2023-02-11T09:52:38.391Z,83.37
2023-02-11T09:55:14.819Z,83.00
2023-02-11T09:57:41.475Z,82.66
2023-02-11T10:00:43.760Z,82.42
2023-02-11T10:03:48.097Z,82.41
2023-02-11T10:06:21.043Z,81.68
2023-02-11T10:08:53.646Z,82.01
2023-02-11T10:11:31.231Z,81.90
2023-02-11T10:14:13.000Z,82.03
2023-02-11T10:17:05.349Z,81.52
2023-02-11T10:19:59.398Z,81.23
2023-02-11T10:22:31.332Z,81.63
2023-02-11T10:25:00.271Z,81.80
2023-02-11T10:27:31.878Z,81.54
2023-02-11T10:30:08.094Z,81.63
2023-02-11T10:33:19.304Z,81.69
2023-02-11T10:35:46.252Z,81.63
2023-02-11T10:38:13.124Z,81.07
2023-02-11T10:40:40.736Z,81.10
2023-02-11T10:43:13.956Z,80.73
2023-02-11T10:45:44.701Z,80.73
2023-02-11T10:48:44.112Z,80.52
2023-02-11T10:51:13.418Z,80.50
2023-02-11T10:53:41.076Z,80.59
2023-02-11T10:56:11.899Z,80.82
2023-02-11T10:58:44.973Z,81.24
2023-02-11T11:01:23.927Z,81.18
2023-02-11T11:03:52.651Z,81.15
2023-02-11T11:06:32.605Z,80.41
2023-02-11T11:08:59.466Z,80.71
2023-02-11T11:11:27.085Z,80.64
2023-02-11T11:13:56.376Z,80.81
2023-02-11T11:16:28.881Z,80.61
2023-02-11T11:19:07.745Z,80.47
2023-02-11T11:21:44.470Z,80.39
2023-02-11T11:24:22.164Z,80.58
2023-02-11T11:26:54.495Z,80.83
2023-02-11T11:29:48.335Z,80.78
2023-02-11T11:32:17.793Z,80.94
2023-02-11T11:34:51.140Z,80.97
2023-02-11T11:37:24.340Z,80.80
2023-02-11T11:40:01.734Z,81.28
2023-02-11T11:42:31.292Z,80.92
2023-02-11T11:45:25.722Z,80.81
2023-02-11T11:48:31.840Z,80.91
2023-02-11T11:51:01.701Z,81.05
2023-02-11T11:53:30.990Z,80.79
2023-02-11T11:56:33.908Z,80.72
2023-02-11T11:59:03.680Z,80.79
2023-02-11T12:01:48.889Z,80.89
2023-02-11T12:04:24.525Z,80.93
2023-02-11T12:07:14.619Z,80.89
2023-02-11T12:09:58.867Z,80.61
2023-02-11T12:12:49.250Z,80.13
2023-02-11T12:15:29.585Z,80.33
2023-02-11T12:18:14.819Z,80.20
2023-02-11T12:20:54.908Z,80.29
2023-02-11T12:23:37.571Z,80.10
2023-02-11T12:26:19.562Z,80.18
2023-02-11T12:29:01.094Z,79.67
2023-02-11T12:31:53.067Z,79.91
2023-02-11T12:34:38.027Z,79.47
2023-02-11T12:37:42.727Z,79.69
2023-02-11T12:40:21.748Z,79.56
2023-02-11T12:43:17.197Z,79.91
2023-02-11T12:46:05.504Z,79.88
2023-02-11T12:49:11.872Z,79.16
2023-02-11T12:51:50.309Z,79.19
2023-02-11T12:54:19.681Z,79.61
2023-02-11T12:56:55.878Z,79.23
2023-02-11T12:59:28.475Z,79.27
2023-02-11T13:01:55.842Z,79.67
2023-02-11T13:04:25.529Z,79.49
2023-02-11T13:06:57.195Z,79.80
2023-02-11T13:09:27.131Z,79.60
2023-02-11T13:11:58.252Z,79.52
2023-02-11T13:14:32.685Z,79.55
2023-02-11T13:16:59.672Z,79.79
2023-02-11T13:19:34.824Z,79.77
2023-02-11T13:22:20.170Z,79.26
2023-02-11T13:24:58.184Z,79.39
2023-02-11T13:27:42.666Z,79.15
2023-02-11T13:30:26.832Z,79.17
2023-02-11T13:32:56.575Z,79.14
2023-02-11T13:35:33.458Z,79.16
2023-02-11T13:38:05.380Z,79.07
2023-02-11T13:40:35.519Z,79.28
2023-02-11T13:43:04.317Z,79.41
2023-02-11T13:45:36.403Z,79.33
2023-02-11T13:48:06.276Z,79.48
2023-02-11T13:50:38.132Z,79.14
2023-02-11T13:53:07.134Z,79.30
2023-02-11T13:55:34.856Z,79.48
2023-02-11T13:58:07.634Z,79.14
2023-02-11T14:00:34.251Z,79.20
2023-02-11T14:03:46.884Z,79.41
2023-02-11T14:06:51.614Z,79.56
2023-02-11T14:09:18.259Z,79.33
2023-02-11T14:11:51.542Z,79.41
2023-02-11T14:14:36.017Z,79.20
2023-02-11T14:17:09.108Z,79.35
2023-02-11T14:19:37.998Z,79.37
2023-02-11T14:22:06.312Z,79.42
2023-02-11T14:24:32.905Z,79.59
2023-02-11T14:27:07.131Z,79.63
2023-02-11T14:29:50.962Z,79.64
2023-02-11T14:32:38.008Z,79.60
2023-02-11T14:35:32.692Z,79.89
2023-02-11T14:38:35.064Z,79.68
2023-02-11T14:41:07.478Z,79.84
2023-02-11T14:43:43.399Z,79.93
2023-02-11T14:46:10.145Z,79.80
2023-02-11T14:48:38.104Z,79.83
2023-02-11T14:51:07.633Z,80.00
2023-02-11T14:53:34.736Z,79.96
2023-02-11T14:56:01.423Z,80.45
2023-02-11T14:58:30.581Z,80.18
2023-02-11T15:00:58.408Z,80.05
2023-02-11T15:03:30.104Z,80.33
2023-02-11T15:06:21.345Z,80.42
2023-02-11T15:08:53.648Z,80.49
2023-02-11T15:11:22.584Z,80.50
2023-02-11T15:13:50.279Z,80.63
2023-02-11T15:16:20.813Z,80.49
2023-02-11T15:18:51.765Z,80.68
2023-02-11T15:21:27.193Z,80.74
2023-02-11T15:24:06.314Z,80.87
2023-02-11T15:26:33.466Z,80.70
2023-02-11T15:29:00.254Z,80.75
2023-02-11T15:31:28.514Z,80.86
2023-02-11T15:33:55.332Z,80.81
2023-02-11T15:36:28.451Z,80.75
2023-02-11T15:39:13.886Z,81.48
2023-02-11T15:41:40.558Z,81.21
2023-02-11T15:44:26.873Z,81.74
2023-02-11T15:46:53.607Z,81.33
2023-02-11T15:49:21.374Z,81.42
2023-02-11T15:51:48.116Z,81.51
2023-02-11T15:54:20.697Z,81.52
2023-02-11T15:56:59.716Z,81.75
2023-02-11T15:59:32.291Z,81.71
2023-02-11T16:02:06.943Z,81.83
2023-02-11T16:04:33.840Z,81.85
2023-02-11T16:07:00.639Z,81.91
2023-02-11T16:09:31.824Z,82.21
2023-02-11T16:12:00.772Z,82.28
2023-02-11T16:14:27.375Z,82.37
2023-02-11T16:17:00.789Z,82.46
2023-02-11T16:19:28.558Z,82.27
2023-02-11T16:21:56.902Z,82.58
2023-02-11T16:24:34.444Z,82.54
2023-02-11T16:27:06.983Z,82.48
2023-02-11T16:29:36.421Z,82.52
2023-02-11T16:32:20.792Z,82.55
2023-02-11T16:34:47.676Z,82.66
2023-02-11T16:37:16.609Z,82.60
2023-02-11T16:39:43.314Z,82.97
2023-02-11T16:42:13.274Z,82.94
2023-02-11T16:44:40.011Z,83.12
2023-02-11T16:47:08.150Z,83.12
2023-02-11T16:49:37.315Z,83.22
2023-02-11T16:52:08.069Z,83.01
2023-02-11T16:54:35.056Z,83.06
2023-02-11T16:57:05.392Z,83.27
2023-02-11T16:59:32.225Z,83.39
2023-02-11T17:01:59.270Z,83.32
2023-02-11T17:04:29.467Z,83.29
2023-02-11T17:06:58.538Z,83.40
2023-02-11T17:09:30.289Z,83.31
2023-02-11T17:11:57.602Z,83.62
2023-02-11T17:14:24.718Z,83.43
2023-02-11T17:16:51.792Z,83.54
2023-02-11T17:19:21.143Z,83.36
2023-02-11T17:21:50.675Z,83.60
2023-02-11T17:24:18.443Z,83.66
2023-02-11T17:26:45.780Z,83.50
2023-02-11T17:29:17.792Z,83.58
2023-02-11T17:31:44.893Z,83.48
2023-02-11T17:34:11.951Z,83.22
2023-02-11T17:36:41.297Z,83.47
2023-02-11T17:39:08.513Z,83.56
2023-02-11T17:41:37.008Z,83.26
2023-02-11T17:44:04.757Z,83.29
2023-02-11T17:46:32.421Z,83.38
2023-02-11T17:48:59.682Z,83.40
2023-02-11T17:51:29.202Z,83.43
2023-02-11T17:53:58.239Z,83.60
2023-02-11T17:56:25.047Z,83.67
2023-02-11T17:58:53.109Z,83.63
2023-02-11T18:01:20.353Z,83.68
2023-02-11T18:03:47.357Z,83.72
2023-02-11T18:06:14.122Z,83.54
2023-02-11T18:08:43.078Z,83.53
2023-02-11T18:11:11.770Z,83.72
2023-02-11T18:13:39.041Z,83.99
2023-02-11T18:16:06.266Z,84.04
2023-02-11T18:18:33.073Z,85.11
2023-02-11T18:21:02.972Z,84.52
2023-02-11T18:23:29.809Z,84.52
2023-02-11T18:25:56.803Z,84.19
2023-02-11T18:28:23.776Z,84.11
2023-02-11T18:30:57.612Z,84.22
2023-02-11T18:33:24.637Z,84.06
2023-02-11T18:35:51.667Z,84.13
2023-02-11T18:38:22.748Z,84.17
2023-02-11T18:40:52.908Z,83.84
2023-02-11T18:43:20.135Z,83.92
2023-02-11T18:45:47.704Z,83.92
2023-02-11T18:48:14.768Z,83.92
2023-02-11T18:50:45.816Z,83.73
2023-02-11T18:53:13.979Z,83.90
2023-02-11T18:55:42.491Z,84.08
2023-02-11T18:58:09.850Z,84.16
2023-02-11T19:00:39.361Z,84.10
2023-02-11T19:03:06.089Z,84.25
2023-02-11T19:05:35.597Z,83.99
2023-02-11T19:08:02.379Z,83.99
2023-02-11T19:10:30.700Z,84.29
2023-02-11T19:12:58.946Z,84.30
2023-02-11T19:15:26.253Z,84.17
2023-02-11T19:17:53.160Z,84.18
2023-02-11T19:20:20.119Z,84.34
2023-02-11T19:22:46.943Z,84.25
2023-02-11T19:25:13.925Z,84.43
2023-02-11T19:27:43.513Z,84.35
2023-02-11T19:30:11.086Z,84.52
2023-02-11T19:32:37.775Z,84.14
2023-02-11T19:35:04.662Z,84.25
2023-02-11T19:37:31.479Z,84.68
2023-02-11T19:39:58.386Z,84.74
2023-02-11T19:42:27.575Z,84.67
2023-02-11T19:44:54.600Z,85.12
2023-02-11T19:47:27.687Z,84.91
2023-02-11T19:49:54.629Z,86.09
2023-02-11T19:52:21.435Z,84.98
2023-02-11T19:54:48.259Z,85.00
2023-02-11T19:57:15.072Z,85.09
2023-02-11T19:59:41.900Z,84.96
2023-02-11T20:02:11.219Z,85.09
2023-02-11T20:04:37.991Z,85.10
2023-02-11T20:07:04.968Z,85.03
2023-02-11T20:09:31.822Z,85.04
2023-02-11T20:11:59.113Z,85.09
2023-02-11T20:14:27.915Z,85.13
2023-02-11T20:16:54.903Z,85.05
2023-02-11T20:19:22.164Z,84.99
2023-02-11T20:21:51.411Z,85.09
2023-02-11T20:24:18.684Z,85.25
2023-02-11T20:26:48.050Z,84.90
2023-02-11T20:29:16.367Z,85.14
2023-02-11T20:31:43.412Z,85.56
2023-02-11T20:34:10.445Z,85.62
2023-02-11T20:36:38.699Z,85.56
2023-02-11T20:39:06.132Z,85.44
2023-02-11T20:41:34.841Z,85.45
2023-02-11T20:44:06.980Z,85.55
2023-02-11T20:46:34.377Z,85.57
2023-02-11T20:49:01.779Z,85.35
2023-02-11T20:51:30.650Z,85.62
2023-02-11T20:53:57.547Z,85.70
2023-02-11T20:56:26.787Z,85.51
2023-02-11T20:58:53.517Z,85.52
2023-02-11T21:01:23.322Z,85.44
2023-02-11T21:03:54.599Z,85.60
2023-02-11T21:06:23.593Z,85.48
2023-02-11T21:08:50.425Z,85.77
2023-02-11T21:11:17.477Z,85.62
2023-02-11T21:13:44.694Z,85.52
2023-02-11T21:16:15.872Z,85.58
2023-02-11T21:18:42.728Z,85.61
2023-02-11T21:21:09.642Z,85.75
2023-02-11T21:23:36.381Z,85.94
2023-02-11T21:26:03.179Z,85.76
2023-02-11T21:28:30.066Z,85.75
2023-02-11T21:30:57.395Z,85.71
2023-02-11T21:33:26.160Z,85.91
2023-02-11T21:36:03.675Z,86.14
2023-02-11T21:38:30.984Z,86.07
2023-02-11T21:41:05.497Z,85.97
2023-02-11T21:43:32.429Z,85.88
2023-02-11T21:45:59.715Z,86.42
2023-02-11T21:48:27.018Z,86.24
2023-02-11T21:50:54.015Z,86.04
2023-02-11T21:53:20.773Z,86.13
2023-02-11T21:55:47.572Z,86.07
2023-02-11T21:58:14.601Z,86.13
2023-02-11T22:00:41.464Z,85.94
2023-02-11T22:03:08.278Z,86.02
2023-02-11T22:05:35.058Z,85.91
2023-02-11T22:08:01.756Z,86.04
2023-02-11T22:10:28.536Z,85.91
2023-02-11T22:12:55.324Z,85.91
2023-02-11T22:15:22.007Z,85.74
2023-02-11T22:17:48.695Z,85.75
2023-02-11T22:20:16.864Z,85.95
2023-02-11T22:22:43.577Z,86.05
2023-02-11T22:25:10.386Z,86.04
2023-02-11T22:27:37.126Z,86.23
2023-02-11T22:30:04.652Z,85.84
2023-02-11T22:32:31.331Z,86.37
2023-02-11T22:34:58.029Z,86.44
2023-02-11T22:37:24.783Z,86.04
2023-02-11T22:39:51.516Z,86.46
2023-02-11T22:42:18.215Z,86.58
2023-02-11T22:44:44.996Z,86.64
2023-02-11T22:47:11.753Z,86.46
2023-02-11T22:49:40.221Z,86.40
2023-02-11T22:52:06.928Z,86.36
2023-02-11T22:54:33.660Z,86.15
2023-02-11T22:57:00.373Z,86.28
2023-02-11T22:59:27.130Z,86.03
2023-02-11T23:01:53.918Z,85.95
2023-02-11T23:04:20.928Z,86.11
2023-02-11T23:06:47.747Z,86.25
2023-02-11T23:09:14.512Z,86.24
2023-02-11T23:11:41.624Z,86.41
2023-02-11T23:14:10.052Z,86.27
2023-02-11T23:16:36.880Z,86.10
2023-02-11T23:19:07.097Z,86.27
2023-02-11T23:21:36.965Z,86.47
2023-02-11T23:24:09.969Z,86.79
2023-02-11T23:26:40.763Z,86.43
2023-02-11T23:29:07.801Z,86.76
2023-02-11T23:31:40.376Z,86.53
2023-02-11T23:34:08.061Z,87.10
2023-02-11T23:36:34.800Z,86.79
2023-02-11T23:39:01.600Z,86.91
2023-02-11T23:41:28.418Z,86.93
2023-02-11T23:43:57.098Z,87.29
2023-02-11T23:46:25.509Z,87.35
2023-02-11T23:48:53.036Z,87.19
2023-02-11T23:51:20.037Z,87.47
2023-02-11T23:53:49.096Z,87.53
2023-02-11T23:56:21.364Z,87.74
2023-02-11T23:58:49.417Z,87.23
